sensor_id;sensor_type;location;lat;lon;timestamp;pressure;altitude;pressure_sealevel;temperature;humidity
73870;BME280;62204;42.140;24.762;2022-11-04T08:11:18;99852.03;;;15.80;47.15
73870;BME280;62204;42.140;24.762;2022-11-04T08:13:44;99844.88;;;15.79;47.66
73870;BME280;62204;42.140;24.762;2022-11-04T08:16:12;99845.94;;;15.78;48.37
73870;BME280;62204;42.140;24.762;2022-11-04T08:18:40;99844.13;;;15.65;49.15
73870;BME280;62204;42.140;24.762;2022-11-04T08:21:05;99844.25;;;15.52;49.22
73870;BME280;62204;42.140;24.762;2022-11-04T08:23:31;99840.03;;;15.49;50.00
73870;BME280;62204;42.140;24.762;2022-11-04T08:25:58;99836.63;;;15.54;49.67
73870;BME280;62204;42.140;24.762;2022-11-04T08:28:24;99838.66;;;15.65;49.21
73870;BME280;62204;42.140;24.762;2022-11-04T08:30:59;99831.66;;;15.69;48.96
73870;BME280;62204;42.140;24.762;2022-11-04T08:33:27;99837.75;;;15.71;48.94
73870;BME280;62204;42.140;24.762;2022-11-04T08:35:55;99827.31;;;15.86;48.85
73870;BME280;64924;42.140;24.762;2022-11-04T08:38:22;99832.50;;;15.94;48.26
73870;BME280;64924;42.140;24.762;2022-11-04T08:40:48;99803.88;;;15.90;47.98
73870;BME280;64924;42.140;24.762;2022-11-04T08:43:14;99822.06;;;16.21;47.47
73870;BME280;64924;42.140;24.762;2022-11-04T08:45:41;99814.91;;;16.20;47.81
73870;BME280;64924;42.140;24.762;2022-11-04T08:48:07;99807.53;;;16.21;47.99
73870;BME280;64924;42.140;24.762;2022-11-04T08:50:33;99808.13;;;16.23;47.91
73870;BME280;64924;42.140;24.762;2022-11-04T08:52:58;99807.91;;;16.24;48.12
73870;BME280;64924;42.140;24.762;2022-11-04T08:55:24;99796.41;;;16.16;48.40
73870;BME280;64924;42.140;24.762;2022-11-04T08:57:49;99787.13;;;16.17;48.44
73870;BME280;64924;42.140;24.762;2022-11-04T09:00:15;99798.16;;;16.28;48.73
73870;BME280;64924;42.140;24.762;2022-11-04T09:02:42;99781.47;;;16.30;48.59
73870;BME280;64924;42.140;24.762;2022-11-04T09:05:07;99748.88;;;16.22;48.12
73870;BME280;64924;42.140;24.762;2022-11-04T09:07:35;99777.63;;;16.49;48.13
73870;BME280;64924;42.140;24.762;2022-11-04T09:10:02;99774.34;;;16.59;47.73
73870;BME280;64924;42.140;24.762;2022-11-04T09:12:28;99774.72;;;16.62;48.33
73870;BME280;64924;42.140;24.762;2022-11-04T09:14:53;99769.41;;;16.67;48.09
73870;BME280;64924;42.140;24.762;2022-11-04T09:17:19;99776.25;;;16.88;47.79
73870;BME280;64924;42.140;24.762;2022-11-04T09:19:44;99740.06;;;16.68;48.27
73870;BME280;64924;42.140;24.762;2022-11-04T09:22:10;99746.16;;;16.82;48.35
73870;BME280;64924;42.140;24.762;2022-11-04T09:24:35;99754.53;;;16.87;48.22
73870;BME280;64924;42.140;24.762;2022-11-04T09:27:01;99754.47;;;17.17;47.88
73870;BME280;64924;42.140;24.762;2022-11-04T09:29:26;99749.38;;;17.44;46.90
73870;BME280;64924;42.140;24.762;2022-11-04T09:31:52;99745.44;;;17.63;46.39
73870;BME280;64924;42.140;24.762;2022-11-04T09:34:18;99740.75;;;17.52;46.61
73870;BME280;64924;42.140;24.762;2022-11-04T09:36:43;99744.22;;;17.47;46.80
73870;BME280;64924;42.140;24.762;2022-11-04T09:39:09;99739.94;;;17.51;46.86
73870;BME280;64924;42.140;24.762;2022-11-04T09:41:46;99742.34;;;17.71;46.14
73870;BME280;64924;42.140;24.762;2022-11-04T09:46:41;99702.09;;;17.77;45.56
73870;BME280;64924;42.140;24.762;2022-11-04T09:49:09;99724.66;;;17.67;46.40
73870;BME280;64924;42.140;24.762;2022-11-04T09:51:37;99718.66;;;17.47;47.01
73870;BME280;64924;42.140;24.762;2022-11-04T09:54:09;99716.97;;;17.11;47.89
73870;BME280;64924;42.140;24.762;2022-11-04T09:56:38;99711.97;;;16.96;48.18
73870;BME280;64924;42.140;24.762;2022-11-04T09:59:10;99704.81;;;17.07;47.90
73870;BME280;64924;42.140;24.762;2022-11-04T10:07:19;99687.53;;;17.41;47.07
73870;BME280;64924;42.140;24.762;2022-11-04T10:12:56;99682.84;;;17.30;47.29
73870;BME280;64924;42.140;24.762;2022-11-04T10:22:17;99669.38;;;17.28;47.35
73870;BME280;64924;42.140;24.762;2022-11-04T10:24:23;99658.16;;;17.42;47.16
73870;BME280;64924;42.140;24.762;2022-11-04T10:27:04;99650.38;;;17.38;46.91
73870;BME280;64924;42.140;24.762;2022-11-04T10:29:56;99624.47;;;17.34;46.58
73870;BME280;64924;42.140;24.762;2022-11-04T10:32:35;99646.88;;;17.55;46.48
73870;BME280;64924;42.140;24.762;2022-11-04T10:37:41;99629.78;;;17.64;46.30
73870;BME280;64924;42.140;24.762;2022-11-04T10:40:24;99630.28;;;17.73;46.41
73870;BME280;64924;42.140;24.762;2022-11-04T10:42:52;99621.25;;;17.89;45.45
73870;BME280;64924;42.140;24.762;2022-11-04T10:45:20;99612.72;;;18.02;45.42
73870;BME280;64924;42.140;24.762;2022-11-04T10:48:04;99609.94;;;18.14;45.25
73870;BME280;64924;42.140;24.762;2022-11-04T10:53:14;99604.34;;;17.81;46.35
73870;BME280;64924;42.140;24.762;2022-11-04T10:56:06;99589.53;;;17.70;46.26
73870;BME280;64924;42.140;24.762;2022-11-04T10:58:45;99583.56;;;17.73;45.88
73870;BME280;64924;42.140;24.762;2022-11-04T11:01:31;99582.88;;;17.66;46.36
73870;BME280;64924;42.140;24.762;2022-11-04T11:03:57;99578.66;;;17.63;46.31
73870;BME280;64924;42.140;24.762;2022-11-04T11:06:28;99566.59;;;17.76;46.12
73870;BME280;64924;42.140;24.762;2022-11-04T11:09:13;99576.16;;;18.02;45.58
73870;BME280;64924;42.140;24.762;2022-11-04T11:11:48;99556.50;;;18.27;44.83
73870;BME280;64924;42.140;24.762;2022-11-04T11:16:44;99558.38;;;18.38;44.54
73870;BME280;64924;42.140;24.762;2022-11-04T11:21:49;99569.22;;;18.45;44.30
73870;BME280;64924;42.140;24.762;2022-11-04T11:24:24;99559.72;;;18.52;44.18
73870;BME280;64924;42.140;24.762;2022-11-04T11:26:56;99556.19;;;18.57;44.28
73870;BME280;64924;42.140;24.762;2022-11-04T11:29:28;99545.53;;;18.60;44.02
73870;BME280;64924;42.140;24.762;2022-11-04T11:31:56;99535.59;;;18.59;43.68
73870;BME280;64924;42.140;24.762;2022-11-04T11:34:31;99538.03;;;18.73;43.87
73870;BME280;64924;42.140;24.762;2022-11-04T11:37:01;99528.34;;;18.70;43.55
73870;BME280;64924;42.140;24.762;2022-11-04T11:39:30;99484.16;;;18.43;43.46
73870;BME280;64924;42.140;24.762;2022-11-04T11:42:06;99528.53;;;18.80;43.66
73870;BME280;64924;42.140;24.762;2022-11-04T11:44:38;99510.84;;;18.76;43.34
73870;BME280;64924;42.140;24.762;2022-11-04T11:50:22;99515.50;;;18.92;42.66
73870;BME280;64924;42.140;24.762;2022-11-04T11:53:16;99518.75;;;18.89;42.97
73870;BME280;64924;42.140;24.762;2022-11-04T11:55:50;99488.16;;;18.69;42.48
73870;BME280;64924;42.140;24.762;2022-11-04T12:01:05;99494.75;;;18.68;42.60
73870;BME280;64924;42.140;24.762;2022-11-04T12:03:47;99487.47;;;18.79;42.61
73870;BME280;64924;42.140;24.762;2022-11-04T12:17:25;99467.63;;;18.98;42.19
73870;BME280;64924;42.140;24.762;2022-11-04T12:20:02;99464.78;;;18.88;42.40
73870;BME280;64924;42.140;24.762;2022-11-04T12:22:40;99462.63;;;18.95;41.94
73870;BME280;64924;42.140;24.762;2022-11-04T12:25:22;99459.19;;;19.05;41.50
73870;BME280;64924;42.140;24.762;2022-11-04T12:27:58;99451.00;;;19.10;41.23
73870;BME280;64924;42.140;24.762;2022-11-04T12:30:27;99438.50;;;19.02;41.45
73870;BME280;64924;42.140;24.762;2022-11-04T12:33:24;99444.09;;;19.29;41.47
73870;BME280;64924;42.140;24.762;2022-11-04T12:39:20;99438.09;;;19.37;41.33
73870;BME280;64924;42.140;24.762;2022-11-04T12:42:16;99442.28;;;18.96;42.66
73870;BME280;64924;42.140;24.762;2022-11-04T12:47:36;99420.47;;;18.51;43.50
73870;BME280;64924;42.140;24.762;2022-11-04T12:50:32;99421.41;;;18.40;43.60
73870;BME280;64924;42.140;24.762;2022-11-04T12:53:12;99393.66;;;18.25;43.50
73870;BME280;64924;42.140;24.762;2022-11-04T12:55:55;99423.31;;;18.23;43.77
73870;BME280;64924;42.140;24.762;2022-11-04T12:58:31;99419.94;;;18.16;43.94
73870;BME280;64924;42.140;24.762;2022-11-04T13:01:07;99412.19;;;18.13;43.23
73870;BME280;64924;42.140;24.762;2022-11-04T13:03:49;99400.03;;;18.09;43.08
73870;BME280;64924;42.140;24.762;2022-11-04T13:06:22;99412.31;;;18.23;43.41
73870;BME280;64924;42.140;24.762;2022-11-04T13:09:48;99418.25;;;18.31;42.99
73870;BME280;64924;42.140;24.762;2022-11-04T13:11:54;99416.31;;;18.32;43.29
73870;BME280;64924;42.140;24.762;2022-11-04T13:14:30;99422.13;;;18.52;42.69
73870;BME280;64924;42.140;24.762;2022-11-04T13:17:04;99413.09;;;18.57;42.48
73870;BME280;64924;42.140;24.762;2022-11-04T13:19:36;99357.97;;;18.30;42.74
73870;BME280;64924;42.140;24.762;2022-11-04T13:22:12;99402.53;;;18.65;42.99
73870;BME280;64924;42.140;24.762;2022-11-04T13:24:47;99403.59;;;18.64;43.21
73870;BME280;64924;42.140;24.762;2022-11-04T13:27:20;99390.78;;;18.53;43.51
73870;BME280;64924;42.140;24.762;2022-11-04T13:29:48;99392.31;;;18.44;43.54
73870;BME280;64924;42.140;24.762;2022-11-04T13:32:26;99398.16;;;18.31;44.05
73870;BME280;64924;42.140;24.762;2022-11-04T13:40:21;99398.19;;;17.97;45.12
73870;BME280;64924;42.140;24.762;2022-11-04T13:43:15;99399.28;;;17.96;45.06
73870;BME280;64924;42.140;24.762;2022-11-04T13:46:02;99382.28;;;17.66;45.68
73870;BME280;64924;42.140;24.762;2022-11-04T13:48:30;99412.78;;;17.81;45.72
73870;BME280;64924;42.140;24.762;2022-11-04T13:51:10;99404.09;;;17.89;45.52
73870;BME280;64924;42.140;24.762;2022-11-04T13:56:09;99391.81;;;17.63;45.98
73870;BME280;64924;42.140;24.762;2022-11-04T13:59:39;99378.34;;;17.62;45.96
73870;BME280;64924;42.140;24.762;2022-11-04T14:01:40;99405.94;;;17.84;45.33
73870;BME280;64924;42.140;24.762;2022-11-04T14:04:27;99407.19;;;17.93;45.16
73870;BME280;64924;42.140;24.762;2022-11-04T14:06:59;99403.69;;;17.97;45.36
73870;BME280;64924;42.140;24.762;2022-11-04T14:14:53;99404.78;;;17.80;45.42
73870;BME280;64924;42.140;24.762;2022-11-04T14:20:08;99397.88;;;17.77;45.62
73870;BME280;64924;42.140;24.762;2022-11-04T14:27:58;99389.44;;;17.67;45.62
73870;BME280;64924;42.140;24.762;2022-11-04T14:33:34;99391.34;;;17.83;45.09
73870;BME280;64924;42.140;24.762;2022-11-04T14:39:27;99368.81;;;17.81;44.84
73870;BME280;64924;42.140;24.762;2022-11-04T14:41:59;99379.69;;;17.93;45.08
73870;BME280;64924;42.140;24.762;2022-11-04T14:47:21;99384.69;;;17.96;45.08
73870;BME280;64924;42.140;24.762;2022-11-04T14:52:32;99355.63;;;17.83;44.98
73870;BME280;64924;42.140;24.762;2022-11-04T14:57:38;99377.78;;;17.93;44.95
73870;BME280;64924;42.140;24.762;2022-11-04T15:05:48;99351.34;;;17.59;45.61
73870;BME280;64924;42.140;24.762;2022-11-04T15:13:24;99387.78;;;17.83;45.46
73870;BME280;64924;42.140;24.762;2022-11-04T15:15:52;99390.63;;;17.71;45.39
73870;BME280;64924;42.140;24.762;2022-11-04T15:18:24;99371.06;;;17.67;45.73
73870;BME280;64924;42.140;24.762;2022-11-04T15:20:56;99378.88;;;17.76;45.54
73870;BME280;64924;42.140;24.762;2022-11-04T15:23:27;99380.31;;;17.78;45.81
73870;BME280;64924;42.140;24.762;2022-11-04T15:25:55;99379.03;;;17.69;46.01
73870;BME280;64924;42.140;24.762;2022-11-04T15:28:25;99371.06;;;17.67;46.08
73870;BME280;64924;42.140;24.762;2022-11-04T15:33:24;99372.84;;;17.62;46.00
73870;BME280;64924;42.140;24.762;2022-11-04T15:35:51;99367.41;;;17.50;45.93
73870;BME280;64924;42.140;24.762;2022-11-04T15:38:17;99385.16;;;17.59;46.19
73870;BME280;64924;42.140;24.762;2022-11-04T15:40:43;99390.16;;;17.62;46.06
73870;BME280;64924;42.140;24.762;2022-11-04T15:43:10;99392.97;;;17.51;46.56
73870;BME280;64924;42.140;24.762;2022-11-04T15:48:27;99388.38;;;17.40;47.27
73870;BME280;64924;42.140;24.762;2022-11-04T15:51:22;99385.56;;;17.34;47.12
73870;BME280;64924;42.140;24.762;2022-11-04T15:56:15;99385.94;;;17.26;47.67
73870;BME280;64924;42.140;24.762;2022-11-04T15:58:43;99361.94;;;17.05;47.72
73870;BME280;64924;42.140;24.762;2022-11-04T16:01:13;99382.56;;;17.08;48.34
73870;BME280;64924;42.140;24.762;2022-11-04T16:03:39;99396.78;;;17.04;48.66
73870;BME280;64924;42.140;24.762;2022-11-04T16:06:06;99390.97;;;16.89;50.67
73870;BME280;64924;42.140;24.762;2022-11-04T16:08:32;99352.25;;;16.74;48.25
73870;BME280;64924;42.140;24.762;2022-11-04T16:11:18;99401.97;;;17.18;48.25
73870;BME280;64924;42.140;24.762;2022-11-04T16:13:44;99401.03;;;17.12;48.45
73870;BME280;64924;42.140;24.762;2022-11-04T16:16:18;99409.03;;;17.14;48.61
73870;BME280;64924;42.140;24.762;2022-11-04T16:18:58;99393.94;;;16.99;48.70
73870;BME280;64924;42.140;24.762;2022-11-04T16:21:25;99399.66;;;16.98;48.92
73870;BME280;64924;42.140;24.762;2022-11-04T16:24:16;99401.72;;;16.91;48.85
73870;BME280;64924;42.140;24.762;2022-11-04T16:26:45;99389.44;;;16.82;49.30
73870;BME280;64924;42.140;24.762;2022-11-04T16:29:32;99389.22;;;16.83;49.18
73870;BME280;64924;42.140;24.762;2022-11-04T16:34:38;99406.88;;;16.76;49.38
73870;BME280;64924;42.140;24.762;2022-11-04T16:37:04;99399.25;;;16.78;49.14
73870;BME280;64924;42.140;24.762;2022-11-04T16:39:30;99400.78;;;16.74;49.06
73870;BME280;64924;42.140;24.762;2022-11-04T16:41:56;99415.47;;;16.79;49.36
73870;BME280;64924;42.140;24.762;2022-11-04T16:44:23;99402.56;;;16.80;49.39
73870;BME280;64924;42.140;24.762;2022-11-04T16:46:49;99403.66;;;16.79;49.72
73870;BME280;64924;42.140;24.762;2022-11-04T16:49:16;99369.22;;;16.59;49.79
73870;BME280;64924;42.140;24.762;2022-11-04T16:51:43;99395.31;;;16.74;49.86
73870;BME280;64924;42.140;24.762;2022-11-04T16:54:09;99351.22;;;16.52;49.79
73870;BME280;64924;42.140;24.762;2022-11-04T16:56:35;99388.06;;;16.67;49.59
73870;BME280;64924;42.140;24.762;2022-11-04T16:59:02;99390.56;;;16.57;50.01
73870;BME280;64924;42.140;24.762;2022-11-04T17:01:28;99389.97;;;16.55;49.99
73870;BME280;64924;42.140;24.762;2022-11-04T17:03:53;99399.63;;;16.58;49.73
73870;BME280;64924;42.140;24.762;2022-11-04T17:06:19;99378.78;;;16.45;49.77
73870;BME280;64924;42.140;24.762;2022-11-04T17:08:45;99402.59;;;16.56;49.79
73870;BME280;64924;42.140;24.762;2022-11-04T17:11:11;99399.75;;;16.51;49.74
73870;BME280;64924;42.140;24.762;2022-11-04T17:13:37;99390.09;;;16.49;49.87
73870;BME280;64924;42.140;24.762;2022-11-04T17:16:04;99375.56;;;16.36;50.08
73870;BME280;64924;42.140;24.762;2022-11-04T17:18:31;99397.50;;;16.48;49.66
73870;BME280;64924;42.140;24.762;2022-11-04T17:21:00;99393.56;;;16.44;49.84
73870;BME280;64924;42.140;24.762;2022-11-04T17:23:26;99394.41;;;16.33;50.31
73870;BME280;64924;42.140;24.762;2022-11-04T17:25:52;99398.81;;;16.34;50.10
73870;BME280;64924;42.140;24.762;2022-11-04T17:28:18;99400.47;;;16.35;50.12
73870;BME280;64924;42.140;24.762;2022-11-04T17:31:19;99396.06;;;16.34;50.48
73870;BME280;64924;42.140;24.762;2022-11-04T17:33:47;99381.44;;;16.17;50.27
73870;BME280;64924;42.140;24.762;2022-11-04T17:36:16;99391.91;;;16.20;50.27
73870;BME280;64924;42.140;24.762;2022-11-04T17:38:42;99390.25;;;16.19;50.33
73870;BME280;64924;42.140;24.762;2022-11-04T17:41:08;99393.00;;;16.19;50.52
73870;BME280;64924;42.140;24.762;2022-11-04T17:43:52;99367.25;;;15.96;50.52
73870;BME280;64924;42.140;24.762;2022-11-04T17:46:30;99375.94;;;16.05;50.59
73870;BME280;64924;42.140;24.762;2022-11-04T17:49:21;99399.91;;;16.10;51.12
73870;BME280;64924;42.140;24.762;2022-11-04T17:51:55;99401.78;;;15.97;51.09
73870;BME280;64924;42.140;24.762;2022-11-04T17:54:22;99382.38;;;15.87;51.24
73870;BME280;64924;42.140;24.762;2022-11-04T17:56:48;99387.88;;;15.87;51.17
73870;BME280;64924;42.140;24.762;2022-11-04T17:59:14;99402.06;;;15.96;51.30
73870;BME280;64924;42.140;24.762;2022-11-04T18:01:47;99405.63;;;15.96;51.04
73870;BME280;64924;42.140;24.762;2022-11-04T18:04:20;99382.50;;;15.81;51.32
73870;BME280;64924;42.140;24.762;2022-11-04T18:06:47;99397.03;;;15.81;51.68
73870;BME280;64924;42.140;24.762;2022-11-04T18:09:13;99399.41;;;15.78;51.35
73870;BME280;64924;42.140;24.762;2022-11-04T18:11:42;99400.34;;;15.71;51.79
73870;BME280;64924;42.140;24.762;2022-11-04T18:14:26;99392.91;;;15.60;51.62
73870;BME280;64924;42.140;24.762;2022-11-04T18:16:52;99399.41;;;15.78;51.59
73870;BME280;64924;42.140;24.762;2022-11-04T18:19:21;99405.72;;;15.78;51.79
73870;BME280;64924;42.140;24.762;2022-11-04T18:21:50;99408.44;;;15.78;51.69
73870;BME280;64924;42.140;24.762;2022-11-04T18:24:16;99407.38;;;15.79;51.47
73870;BME280;64924;42.140;24.762;2022-11-04T18:26:42;99406.19;;;15.75;51.82
73870;BME280;64924;42.140;24.762;2022-11-04T18:29:08;99385.69;;;15.66;51.36
73870;BME280;64924;42.140;24.762;2022-11-04T18:31:39;99407.84;;;15.76;51.70
73870;BME280;64924;42.140;24.762;2022-11-04T18:34:07;99397.59;;;15.71;51.80
73870;BME280;64924;42.140;24.762;2022-11-04T18:36:36;99372.19;;;15.53;51.75
73870;BME280;64924;42.140;24.762;2022-11-04T18:39:06;99405.91;;;15.65;51.72
73870;BME280;64924;42.140;24.762;2022-11-04T18:41:33;99400.91;;;15.62;51.56
73870;BME280;64924;42.140;24.762;2022-11-04T18:43:59;99373.13;;;15.47;51.61
73870;BME280;64924;42.140;24.762;2022-11-04T18:46:25;99402.56;;;15.63;51.68
73870;BME280;64924;42.140;24.762;2022-11-04T18:48:51;99402.91;;;15.55;51.60
73870;BME280;64924;42.140;24.762;2022-11-04T18:51:20;99421.88;;;15.56;51.66
73870;BME280;64924;42.140;24.762;2022-11-04T18:53:47;99412.50;;;15.46;51.44
73870;BME280;64924;42.140;24.762;2022-11-04T18:56:15;99414.38;;;15.33;51.51
73870;BME280;64924;42.140;24.762;2022-11-04T18:58:41;99409.94;;;15.21;51.73
73870;BME280;64924;42.140;24.762;2022-11-04T19:01:17;99397.66;;;15.12;51.44
73870;BME280;64924;42.140;24.762;2022-11-04T19:03:44;99408.44;;;15.07;52.14
73870;BME280;64924;42.140;24.762;2022-11-04T19:06:14;99409.44;;;15.12;51.62
73870;BME280;64924;42.140;24.762;2022-11-04T19:08:40;99388.31;;;15.01;51.80
73870;BME280;64924;42.140;24.762;2022-11-04T19:11:16;99401.69;;;15.09;51.74
73870;BME280;64924;42.140;24.762;2022-11-04T19:13:42;99392.94;;;15.00;51.82
73870;BME280;64924;42.140;24.762;2022-11-04T19:16:10;99398.34;;;15.07;51.73
73870;BME280;64924;42.140;24.762;2022-11-04T19:18:38;99406.78;;;15.05;52.05
73870;BME280;64924;42.140;24.762;2022-11-04T19:21:10;99401.53;;;15.04;52.04
73870;BME280;64924;42.140;24.762;2022-11-04T19:23:37;99397.13;;;15.03;51.87
73870;BME280;64924;42.140;24.762;2022-11-04T19:26:08;99384.38;;;14.97;51.80
73870;BME280;64924;42.140;24.762;2022-11-04T19:28:41;99396.06;;;15.04;51.86
73870;BME280;64924;42.140;24.762;2022-11-04T19:31:12;99389.97;;;15.02;52.00
73870;BME280;64924;42.140;24.762;2022-11-04T19:33:38;99396.38;;;14.96;52.20
73870;BME280;64924;42.140;24.762;2022-11-04T19:36:05;99400.16;;;14.95;52.32
73870;BME280;64924;42.140;24.762;2022-11-04T19:38:31;99407.78;;;14.93;52.16
73870;BME280;64924;42.140;24.762;2022-11-04T19:41:02;99394.56;;;14.90;52.41
73870;BME280;64924;42.140;24.762;2022-11-04T19:43:28;99392.88;;;14.89;52.33
73870;BME280;64924;42.140;24.762;2022-11-04T19:45:59;99397.22;;;14.96;51.99
73870;BME280;64924;42.140;24.762;2022-11-04T19:48:26;99397.59;;;15.00;52.03
73870;BME280;64924;42.140;24.762;2022-11-04T19:50:51;99380.41;;;14.93;52.17
73870;BME280;64924;42.140;24.762;2022-11-04T19:53:16;99402.13;;;15.06;51.92
73870;BME280;64924;42.140;24.762;2022-11-04T19:55:50;99390.28;;;15.12;51.61
73870;BME280;64924;42.140;24.762;2022-11-04T19:58:16;99411.09;;;15.13;52.05
73870;BME280;64924;42.140;24.762;2022-11-04T20:00:42;99408.22;;;15.08;52.01
73870;BME280;64924;42.140;24.762;2022-11-04T20:03:07;99405.47;;;15.08;51.88
73870;BME280;64924;42.140;24.762;2022-11-04T20:05:38;99400.84;;;14.90;53.19
73870;BME280;64924;42.140;24.762;2022-11-04T20:08:04;99399.38;;;14.58;54.14
73870;BME280;64924;42.140;24.762;2022-11-04T20:10:30;99409.78;;;14.49;54.25
73870;BME280;64924;42.140;24.762;2022-11-04T20:12:58;99404.06;;;14.51;54.38
73870;BME280;64924;42.140;24.762;2022-11-04T20:15:42;99410.25;;;14.64;53.96
73870;BME280;64924;42.140;24.762;2022-11-04T20:18:07;99414.78;;;14.70;53.97
73870;BME280;64924;42.140;24.762;2022-11-04T20:20:34;99420.88;;;14.73;53.80
73870;BME280;64924;42.140;24.762;2022-11-04T20:22:59;99404.91;;;14.69;53.25
73870;BME280;64924;42.140;24.762;2022-11-04T20:25:26;99387.91;;;14.67;52.86
73870;BME280;64924;42.140;24.762;2022-11-04T20:27:51;99420.94;;;14.84;53.17
73870;BME280;64924;42.140;24.762;2022-11-04T20:30:17;99418.72;;;14.93;52.80
73870;BME280;64924;42.140;24.762;2022-11-04T20:32:45;99404.53;;;14.84;52.55
73870;BME280;64924;42.140;24.762;2022-11-04T20:35:10;99421.81;;;14.96;52.75
73870;BME280;64924;42.140;24.762;2022-11-04T20:37:36;99420.63;;;14.92;52.62
73870;BME280;64924;42.140;24.762;2022-11-04T20:40:03;99429.06;;;14.91;52.69
73870;BME280;64924;42.140;24.762;2022-11-04T20:42:29;99433.47;;;14.92;53.05
73870;BME280;64924;42.140;24.762;2022-11-04T20:44:54;99423.44;;;14.86;52.71
73870;BME280;64924;42.140;24.762;2022-11-04T20:47:20;99428.22;;;14.90;52.86
73870;BME280;64924;42.140;24.762;2022-11-04T20:49:46;99411.59;;;14.74;53.28
73870;BME280;64924;42.140;24.762;2022-11-04T20:52:11;99414.94;;;14.57;53.51
73870;BME280;64924;42.140;24.762;2022-11-04T20:54:37;99406.44;;;14.65;53.52
73870;BME280;64924;42.140;24.762;2022-11-04T20:57:02;99404.91;;;14.69;53.36
73870;BME280;64924;42.140;24.762;2022-11-04T20:59:28;99413.13;;;14.69;53.00
73870;BME280;64924;42.140;24.762;2022-11-04T21:01:54;99421.47;;;14.75;53.41
73870;BME280;64924;42.140;24.762;2022-11-04T21:04:19;99408.13;;;14.66;53.29
73870;BME280;64924;42.140;24.762;2022-11-04T21:06:47;99414.41;;;14.67;53.54
73870;BME280;64924;42.140;24.762;2022-11-04T21:09:14;99407.28;;;14.66;53.16
73870;BME280;64924;42.140;24.762;2022-11-04T21:11:40;99415.25;;;14.67;53.44
73870;BME280;64924;42.140;24.762;2022-11-04T21:14:07;99413.19;;;14.63;53.50
73870;BME280;64924;42.140;24.762;2022-11-04T21:16:34;99406.28;;;14.60;53.47
73870;BME280;64924;42.140;24.762;2022-11-04T21:19:00;99417.00;;;14.62;53.19
73870;BME280;64924;42.140;24.762;2022-11-04T21:21:26;99400.22;;;14.58;53.30
73870;BME280;64924;42.140;24.762;2022-11-04T21:24:02;99407.34;;;14.59;53.37
73870;BME280;64924;42.140;24.762;2022-11-04T21:26:30;99401.28;;;14.57;53.56
73870;BME280;64924;42.140;24.762;2022-11-04T21:29:11;99408.41;;;14.58;53.54
73870;BME280;64924;42.140;24.762;2022-11-04T21:31:36;99390.06;;;14.47;53.71
73870;BME280;64924;42.140;24.762;2022-11-04T21:34:03;99366.41;;;14.34;53.63
73870;BME280;64924;42.140;24.762;2022-11-04T21:36:29;99396.72;;;14.51;53.59
73870;BME280;64924;42.140;24.762;2022-11-04T21:38:55;99391.13;;;14.46;53.85
73870;BME280;64924;42.140;24.762;2022-11-04T21:41:22;99406.69;;;14.46;53.82
73870;BME280;64924;42.140;24.762;2022-11-04T21:43:56;99393.06;;;14.39;53.78
73870;BME280;64924;42.140;24.762;2022-11-04T21:46:23;99400.88;;;14.35;53.67
73870;BME280;64924;42.140;24.762;2022-11-04T21:48:49;99367.88;;;14.12;53.62
73870;BME280;64924;42.140;24.762;2022-11-04T21:51:21;99389.16;;;14.28;53.56
73870;BME280;64924;42.140;24.762;2022-11-04T21:53:46;99354.72;;;14.09;53.57
73870;BME280;64924;42.140;24.762;2022-11-04T21:56:15;99335.31;;;13.92;53.46
73870;BME280;64924;42.140;24.762;2022-11-04T21:58:41;99366.75;;;14.20;53.68
73870;BME280;64924;42.140;24.762;2022-11-04T22:01:12;99345.41;;;13.92;53.64
73870;BME280;64924;42.140;24.762;2022-11-04T22:03:38;99366.16;;;13.99;53.48
73870;BME280;64924;42.140;24.762;2022-11-04T22:06:09;99377.69;;;14.01;53.74
73870;BME280;64924;42.140;24.762;2022-11-04T22:08:36;99368.25;;;13.97;53.77
73870;BME280;64924;42.140;24.762;2022-11-04T22:13:30;99371.50;;;13.88;54.22
73870;BME280;64924;42.140;24.762;2022-11-04T22:15:55;99370.06;;;13.85;54.05
73870;BME280;64924;42.140;24.762;2022-11-04T22:18:29;99363.13;;;13.83;54.36
73870;BME280;64924;42.140;24.762;2022-11-04T22:20:56;99352.88;;;13.78;54.34
73870;BME280;64924;42.140;24.762;2022-11-04T22:23:22;99360.19;;;13.84;54.15
73870;BME280;64924;42.140;24.762;2022-11-04T22:25:48;99356.84;;;13.82;54.26
73870;BME280;64924;42.140;24.762;2022-11-04T22:28:13;99349.09;;;13.79;54.21
73870;BME280;64924;42.140;24.762;2022-11-04T22:30:43;99343.94;;;13.71;54.58
73870;BME280;64924;42.140;24.762;2022-11-04T22:33:09;99334.84;;;13.77;54.19
73870;BME280;64924;42.140;24.762;2022-11-04T22:35:35;99338.78;;;13.81;54.36
73870;BME280;64924;42.140;24.762;2022-11-04T22:38:01;99340.06;;;13.79;54.28
73870;BME280;64924;42.140;24.762;2022-11-04T22:40:26;99348.25;;;13.79;54.27
73870;BME280;64924;42.140;24.762;2022-11-04T22:42:51;99348.94;;;13.74;54.40
73870;BME280;64924;42.140;24.762;2022-11-04T22:45:17;99337.66;;;13.70;54.73
73870;BME280;64924;42.140;24.762;2022-11-04T22:47:43;99338.94;;;13.68;54.27
73870;BME280;64924;42.140;24.762;2022-11-04T22:50:08;99337.25;;;13.67;54.54
73870;BME280;64924;42.140;24.762;2022-11-04T22:52:34;99346.69;;;13.71;54.22
73870;BME280;64924;42.140;24.762;2022-11-04T22:54:59;99322.22;;;13.58;54.48
73870;BME280;64924;42.140;24.762;2022-11-04T22:57:25;99334.41;;;13.55;54.67
73870;BME280;64924;42.140;24.762;2022-11-04T22:59:51;99344.00;;;13.64;54.74
73870;BME280;64924;42.140;24.762;2022-11-04T23:02:16;99348.44;;;13.59;54.80
73870;BME280;64924;42.140;24.762;2022-11-04T23:04:41;99347.56;;;13.65;54.77
73870;BME280;64924;42.140;24.762;2022-11-04T23:07:09;99334.41;;;13.55;54.91